createdAt,value
2023-02-19T00:08:46.463Z,4.60
2023-02-19T00:19:06.481Z,4.10
2023-02-19T00:29:28.474Z,4.30
2023-02-19T00:39:41.501Z,4.70
2023-02-19T00:49:54.513Z,4.40
2023-02-19T01:00:07.535Z,4.20
2023-02-19T01:10:20.524Z,5.70
2023-02-19T01:20:40.494Z,6.30
2023-02-19T01:30:53.559Z,6.20
2023-02-19T01:41:08.854Z,7.60
2023-02-19T01:51:25.540Z,6.90
2023-02-19T02:01:38.567Z,5.80
2023-02-19T02:11:57.567Z,4.00
2023-02-19T02:22:27.556Z,3.50
2023-02-19T02:32:48.556Z,3.80
2023-02-19T02:43:05.555Z,4.80
2023-02-19T02:53:47.605Z,5.50
2023-02-19T03:04:04.573Z,6.05
2023-02-19T03:14:41.609Z,6.00
2023-02-19T03:25:20.616Z,6.70
2023-02-19T03:35:40.612Z,7.40
2023-02-19T03:45:59.662Z,7.00
2023-02-19T03:56:21.649Z,7.10
2023-02-19T04:06:37.654Z,6.50
2023-02-19T04:17:07.676Z,7.20
2023-02-19T04:27:20.663Z,6.00
2023-02-19T04:37:33.659Z,6.20
2023-02-19T04:47:46.635Z,6.30
2023-02-19T04:57:59.674Z,5.00
2023-02-19T05:08:12.646Z,4.50
2023-02-19T05:18:32.694Z,4.60
2023-02-19T05:28:45.684Z,5.20
2023-02-19T05:39:03.689Z,11.70
2023-02-19T05:49:16.696Z,10.50
2023-02-19T05:59:31.711Z,10.00
2023-02-19T06:09:44.706Z,7.80
2023-02-19T06:20:03.682Z,6.50
2023-02-19T06:30:16.750Z,7.40
2023-02-19T06:40:29.715Z,9.20
2023-02-19T06:50:42.741Z,11.60
